createdAt,value
2017-05-11T00:01:38.835Z,16.50
2017-05-11T00:04:07.310Z,15.72
2017-05-11T00:06:35.631Z,16.48
2017-05-11T00:09:04.522Z,18.40
2017-05-11T00:11:33.260Z,15.16
2017-05-11T00:14:01.201Z,15.88
2017-05-11T00:16:29.514Z,17.44
2017-05-11T00:18:57.506Z,15.98
2017-05-11T00:21:25.831Z,16.94
2017-05-11T00:23:53.810Z,15.86
2017-05-11T00:26:22.192Z,17.54
2017-05-11T00:28:50.528Z,16.34
2017-05-11T00:31:18.886Z,18.82
2017-05-11T00:33:47.263Z,16.78
2017-05-11T00:36:16.316Z,18.42
2017-05-11T00:38:44.256Z,18.48
2017-05-11T00:41:12.634Z,16.90
2017-05-11T00:43:40.953Z,18.46
2017-05-11T00:46:09.281Z,15.98
2017-05-11T00:48:38.020Z,18.90
2017-05-11T00:51:06.327Z,19.98
2017-05-11T00:53:34.641Z,18.70
2017-05-11T00:56:03.147Z,17.38
2017-05-11T00:58:31.462Z,18.42
2017-05-11T01:00:59.395Z,18.40
2017-05-11T01:03:27.383Z,15.64
2017-05-11T01:05:55.343Z,17.78
2017-05-11T01:08:23.678Z,17.76
2017-05-11T01:10:51.701Z,18.98
2017-05-11T01:13:20.399Z,19.50
2017-05-11T01:15:48.713Z,18.54
2017-05-11T01:18:17.063Z,18.66
2017-05-11T01:20:45.967Z,19.44
2017-05-11T01:23:14.648Z,18.84
2017-05-11T01:25:43.375Z,19.18
2017-05-11T01:28:11.688Z,20.02
2017-05-11T01:30:40.010Z,20.58
2017-05-11T01:33:08.982Z,20.02
2017-05-11T01:35:36.923Z,17.78
2017-05-11T01:38:05.601Z,21.78
2017-05-11T01:40:34.334Z,21.20
2017-05-11T01:43:02.644Z,18.68
2017-05-11T01:45:31.543Z,19.32
2017-05-11T01:48:00.274Z,20.80
2017-05-11T01:50:29.162Z,18.98
2017-05-11T01:52:57.463Z,17.80
2017-05-11T01:55:26.183Z,20.58
2017-05-11T01:57:54.517Z,18.10
2017-05-11T02:00:22.455Z,19.96
2017-05-11T02:02:50.452Z,19.04
2017-05-11T02:05:18.394Z,18.76
2017-05-11T02:07:46.739Z,20.82
2017-05-11T02:10:15.092Z,19.58
2017-05-11T02:12:43.406Z,19.02
2017-05-11T02:15:11.347Z,17.86
2017-05-11T02:17:39.713Z,20.80
2017-05-11T02:20:08.032Z,20.42
2017-05-11T02:22:35.967Z,21.10
2017-05-11T02:25:04.310Z,18.98
2017-05-11T02:27:32.615Z,20.52
2017-05-11T02:30:00.915Z,20.88
2017-05-11T02:32:29.866Z,19.28
2017-05-11T02:34:58.175Z,20.70
2017-05-11T02:37:26.482Z,21.30
2017-05-11T02:39:54.843Z,20.42
2017-05-11T02:42:23.747Z,20.36
2017-05-11T02:44:52.433Z,22.50
2017-05-11T02:47:21.167Z,22.10
2017-05-11T02:49:49.499Z,21.12
2017-05-11T02:52:18.386Z,22.00
2017-05-11T02:54:47.107Z,20.52
2017-05-11T02:57:15.774Z,24.08
2017-05-11T02:59:43.706Z,24.88
2017-05-11T03:02:12.050Z,20.96
2017-05-11T03:04:40.734Z,21.84
2017-05-11T03:07:09.064Z,21.82
2017-05-11T03:09:37.071Z,21.36
2017-05-11T03:12:05.951Z,21.38
2017-05-11T03:14:34.835Z,22.46
2017-05-11T03:17:03.547Z,23.22
2017-05-11T03:19:32.223Z,20.10
2017-05-11T03:22:00.527Z,20.20
2017-05-11T03:24:29.459Z,20.66
2017-05-11T03:26:58.131Z,21.68
2017-05-11T03:29:26.431Z,22.24
2017-05-11T03:31:55.388Z,22.86
2017-05-11T03:34:24.294Z,22.90
2017-05-11T03:36:53.351Z,24.00
2017-05-11T03:39:22.723Z,20.70
2017-05-11T03:41:50.686Z,22.14
2017-05-11T03:44:18.619Z,22.56
2017-05-11T03:46:46.974Z,22.70
2017-05-11T03:49:14.908Z,24.38
2017-05-11T03:51:42.845Z,21.78
2017-05-11T03:54:11.867Z,21.18
2017-05-11T03:56:40.767Z,25.40
2017-05-11T03:59:09.136Z,20.48
2017-05-11T04:01:38.092Z,24.02
2017-05-11T04:04:06.403Z,24.68
2017-05-11T04:06:34.712Z,23.26
2017-05-11T04:09:03.070Z,24.66
2017-05-11T04:11:32.110Z,27.84
2017-05-11T04:14:00.410Z,24.56
2017-05-11T04:16:28.743Z,23.88
2017-05-11T04:18:57.039Z,23.24
2017-05-11T04:21:25.365Z,23.72
2017-05-11T04:23:53.368Z,25.00
2017-05-11T04:26:21.710Z,21.30
2017-05-11T04:28:50.779Z,22.06
2017-05-11T04:31:18.754Z,22.46
2017-05-11T04:33:46.707Z,24.34
2017-05-11T04:36:15.019Z,22.70
2017-05-11T04:38:42.991Z,23.40
2017-05-11T04:41:11.295Z,22.64
2017-05-11T04:43:39.975Z,22.76
2017-05-11T04:46:09.364Z,22.12
2017-05-11T04:48:37.676Z,23.66
2017-05-11T04:51:05.987Z,21.76
2017-05-11T04:53:34.334Z,23.30
2017-05-11T04:56:03.012Z,23.56
2017-05-11T04:58:31.315Z,26.12
2017-05-11T05:01:00.059Z,31.06
2017-05-11T05:03:29.118Z,24.18
2017-05-11T05:05:57.454Z,24.22
2017-05-11T05:08:26.567Z,21.82
2017-05-11T05:10:54.910Z,22.60
2017-05-11T05:13:50.405Z,25.80
2017-05-11T05:16:18.728Z,23.44
2017-05-11T05:18:46.699Z,23.72
2017-05-11T05:21:15.064Z,26.64
2017-05-11T05:23:43.003Z,22.46
2017-05-11T05:26:11.332Z,24.14
2017-05-11T05:28:39.438Z,22.32
2017-05-11T05:31:08.322Z,26.60
2017-05-11T05:33:36.622Z,25.48
2017-05-11T05:36:04.995Z,23.86
2017-05-11T05:38:33.890Z,24.58
2017-05-11T05:41:02.562Z,23.04
2017-05-11T05:43:31.490Z,23.80
2017-05-11T05:46:00.224Z,23.68
2017-05-11T05:48:28.184Z,21.24
2017-05-11T05:50:56.204Z,21.30
2017-05-11T05:53:25.106Z,24.64
2017-05-11T05:55:54.018Z,25.58
2017-05-11T05:58:22.817Z,23.70
2017-05-11T06:00:51.152Z,22.76
2017-05-11T06:03:19.484Z,23.88
2017-05-11T06:05:48.474Z,22.82
2017-05-11T06:08:17.362Z,21.36
2017-05-11T06:10:45.302Z,22.02
2017-05-11T06:13:13.296Z,23.82
2017-05-11T06:15:41.968Z,28.02
2017-05-11T06:18:10.294Z,19.78
2017-05-11T06:20:38.283Z,20.58
2017-05-11T06:23:06.594Z,20.48
2017-05-11T06:25:34.536Z,20.48
2017-05-11T06:28:03.479Z,19.58
2017-05-11T06:30:32.373Z,17.40
2017-05-11T06:33:00.309Z,21.46
2017-05-11T06:35:28.664Z,15.58
2017-05-11T06:37:57.576Z,14.30
2017-05-11T06:40:26.628Z,13.06
2017-05-11T06:42:54.631Z,15.22
2017-05-11T06:45:22.602Z,18.06
2017-05-11T06:47:51.651Z,13.72
2017-05-11T06:50:19.994Z,11.78
2017-05-11T06:52:48.299Z,13.24
2017-05-11T06:55:17.339Z,9.44
2017-05-11T06:57:46.007Z,9.32
2017-05-11T07:00:13.926Z,9.62
2017-05-11T07:02:42.810Z,15.94
2017-05-11T07:05:11.750Z,12.68
2017-05-11T07:07:40.642Z,9.78
2017-05-11T07:10:08.944Z,13.00
2017-05-11T07:12:37.308Z,10.24
2017-05-11T07:15:05.239Z,7.82
2017-05-11T07:18:11.902Z,6.28
2017-05-11T07:20:40.206Z,3.74
2017-05-11T07:23:08.513Z,4.18
2017-05-11T07:25:37.463Z,3.44
2017-05-11T07:28:05.749Z,3.08
2017-05-11T07:30:34.783Z,8.92
2017-05-11T07:33:03.867Z,7.28
2017-05-11T07:35:32.163Z,7.78
2017-05-11T07:38:00.457Z,4.52
2017-05-11T07:40:29.176Z,3.46
2017-05-11T07:42:58.063Z,6.52
2017-05-11T07:45:26.010Z,8.58
2017-05-11T07:47:54.376Z,6.62
2017-05-11T07:50:22.687Z,5.84
2017-05-11T07:52:50.995Z,6.46
2017-05-11T07:55:18.982Z,13.46
2017-05-11T07:57:47.283Z,9.14
2017-05-11T08:00:15.942Z,8.20
2017-05-11T08:02:44.287Z,8.58
2017-05-11T08:05:12.956Z,6.88
2017-05-11T08:07:41.826Z,7.52
2017-05-11T08:10:10.645Z,3.70
2017-05-11T08:12:38.580Z,4.38
2017-05-11T08:15:07.467Z,7.74
2017-05-11T08:17:36.407Z,11.78
2017-05-11T08:20:05.444Z,7.88
2017-05-11T08:22:33.367Z,8.90
2017-05-11T08:25:02.720Z,8.98
2017-05-11T08:27:31.598Z,4.86
2017-05-11T08:30:00.263Z,13.98
2017-05-11T08:32:28.595Z,8.18
2017-05-11T08:34:56.518Z,20.82
2017-05-11T08:37:25.431Z,6.36
2017-05-11T08:39:53.805Z,6.34
2017-05-11T08:42:22.128Z,5.90
2017-05-11T08:44:50.075Z,5.92
2017-05-11T08:47:19.571Z,3.36
2017-05-11T08:49:48.244Z,4.78
2017-05-11T08:52:17.279Z,3.86
2017-05-11T08:54:45.627Z,8.06
2017-05-11T08:57:13.922Z,6.20
2017-05-11T08:59:42.798Z,2.92
2017-05-11T09:02:11.200Z,8.84
2017-05-11T09:04:39.508Z,6.00
2017-05-11T09:07:07.806Z,3.74
2017-05-11T09:09:36.730Z,5.74
2017-05-11T09:12:05.387Z,5.68
2017-05-11T09:14:33.306Z,3.74
2017-05-11T09:17:02.231Z,7.30
2017-05-11T09:19:30.902Z,5.18
2017-05-11T09:21:59.941Z,3.82
2017-05-11T09:24:27.935Z,6.88
2017-05-11T09:26:56.810Z,5.52
2017-05-11T09:29:25.127Z,9.42
2017-05-11T09:31:54.228Z,9.72
2017-05-11T09:34:22.174Z,6.00
2017-05-11T09:36:50.475Z,6.22
2017-05-11T09:39:18.834Z,6.28
2017-05-11T09:41:47.503Z,7.06
2017-05-11T09:44:15.798Z,6.78
2017-05-11T09:46:44.139Z,5.80
2017-05-11T09:49:13.031Z,5.82
2017-05-11T09:51:41.906Z,20.60
2017-05-11T09:54:10.278Z,6.02
2017-05-11T09:56:38.203Z,8.08
2017-05-11T09:59:06.499Z,4.46
2017-05-11T10:01:35.842Z,4.76
2017-05-11T10:04:03.764Z,5.60
2017-05-11T10:06:31.691Z,6.32
2017-05-11T10:09:00.779Z,9.96
2017-05-11T10:11:29.658Z,10.00
2017-05-11T10:13:58.535Z,4.12
2017-05-11T10:16:27.484Z,7.40
2017-05-11T10:18:56.370Z,6.12
2017-05-11T10:21:25.419Z,3.64
2017-05-11T10:23:53.783Z,2.80
2017-05-11T10:26:22.678Z,4.50
2017-05-11T10:28:51.355Z,4.80
2017-05-11T10:31:20.406Z,9.30
2017-05-11T10:33:49.089Z,3.74
2017-05-11T10:36:17.974Z,8.52
2017-05-11T10:38:46.322Z,7.08
2017-05-11T10:41:14.618Z,5.54
2017-05-11T10:43:43.278Z,4.50
2017-05-11T10:46:12.246Z,6.72
2017-05-11T10:48:41.138Z,7.20
2017-05-11T10:51:09.814Z,8.72
2017-05-11T10:53:38.160Z,9.60
2017-05-11T10:56:06.079Z,4.26
2017-05-11T10:58:34.009Z,4.52
2017-05-11T11:01:02.745Z,7.42
2017-05-11T11:03:30.671Z,2.86
2017-05-11T11:05:58.974Z,4.04
2017-05-11T11:08:26.943Z,6.70
2017-05-11T11:10:55.246Z,5.98
2017-05-11T11:13:23.558Z,8.66
2017-05-11T11:15:51.918Z,4.06
2017-05-11T11:18:19.865Z,5.66
2017-05-11T11:20:48.175Z,9.62
2017-05-11T11:23:16.527Z,13.24
2017-05-11T11:25:45.198Z,8.62
2017-05-11T11:28:13.495Z,3.68
2017-05-11T11:30:41.471Z,3.38
2017-05-11T11:33:10.528Z,4.00
2017-05-11T11:35:39.430Z,3.92
2017-05-11T11:38:08.539Z,7.82
2017-05-11T11:40:36.838Z,3.50
2017-05-11T11:43:05.131Z,3.36
2017-05-11T11:45:34.052Z,4.98
2017-05-11T11:48:02.931Z,5.92
2017-05-11T11:50:30.858Z,5.00
2017-05-11T11:52:59.277Z,4.22
2017-05-11T11:55:27.572Z,6.04
2017-05-11T11:57:55.513Z,8.16
2017-05-11T12:00:24.468Z,4.88
2017-05-11T12:02:53.168Z,6.28
2017-05-11T12:05:21.488Z,6.70
2017-05-11T12:07:50.292Z,5.10
2017-05-11T12:10:18.602Z,8.46
2017-05-11T12:12:47.490Z,4.76
2017-05-11T12:15:15.558Z,3.84
2017-05-11T12:17:44.223Z,3.66
2017-05-11T12:20:12.885Z,4.38
2017-05-11T12:22:41.271Z,4.30
2017-05-11T12:25:09.963Z,7.38
2017-05-11T12:27:39.023Z,6.12
2017-05-11T12:30:07.375Z,5.04
2017-05-11T12:32:35.667Z,5.84
2017-05-11T12:35:04.542Z,3.76
2017-05-11T12:37:33.487Z,7.26
2017-05-11T12:40:01.407Z,5.88
2017-05-11T12:42:29.706Z,6.38
2017-05-11T12:44:58.051Z,6.40
2017-05-11T12:47:26.357Z,5.94
2017-05-11T12:49:55.244Z,6.24
2017-05-11T12:52:23.256Z,5.40
2017-05-11T12:54:51.195Z,4.20
2017-05-11T12:57:19.490Z,4.52
2017-05-11T12:59:47.462Z,7.50
2017-05-11T13:02:16.499Z,4.30
2017-05-11T13:04:44.799Z,4.70
2017-05-11T13:07:13.466Z,3.90
2017-05-11T13:09:42.134Z,6.96
2017-05-11T13:12:11.179Z,3.50
2017-05-11T13:14:39.543Z,4.22
2017-05-11T13:17:08.448Z,4.66
2017-05-11T13:19:37.115Z,4.40
2017-05-11T13:22:06.523Z,3.88
2017-05-11T13:24:35.559Z,3.36
2017-05-11T13:27:03.860Z,4.02
2017-05-11T13:29:32.955Z,3.50
2017-05-11T13:32:00.879Z,3.80
2017-05-11T13:34:29.174Z,8.06
2017-05-11T13:36:57.583Z,4.82
2017-05-11T13:39:26.250Z,4.04
2017-05-11T13:41:54.554Z,6.98
2017-05-11T13:44:23.644Z,4.18
2017-05-11T13:46:51.599Z,3.26
2017-05-11T13:49:19.921Z,5.76
2017-05-11T13:51:48.279Z,2.94
2017-05-11T13:54:16.571Z,5.54
2017-05-11T13:56:45.446Z,4.54
2017-05-11T13:59:14.363Z,3.08
2017-05-11T14:01:42.287Z,3.16
2017-05-11T14:04:11.322Z,3.00
2017-05-11T14:06:39.680Z,3.94
2017-05-11T14:09:07.997Z,4.10
2017-05-11T14:11:36.666Z,4.00
2017-05-11T14:14:05.023Z,4.54
2017-05-11T14:16:32.942Z,4.10
2017-05-11T14:19:01.239Z,9.72
2017-05-11T14:21:29.215Z,4.18
2017-05-11T14:23:57.145Z,6.90
2017-05-11T14:26:26.183Z,3.38
2017-05-11T14:28:54.538Z,3.52
2017-05-11T14:31:22.853Z,6.70
2017-05-11T14:33:52.342Z,3.94
2017-05-11T14:36:20.331Z,6.48
2017-05-11T14:38:48.631Z,10.76
2017-05-11T14:41:16.923Z,6.42
2017-05-11T14:43:44.894Z,4.40
2017-05-11T14:46:13.197Z,4.14
2017-05-11T14:48:41.521Z,8.72
2017-05-11T14:51:09.903Z,2.84
2017-05-11T14:53:38.603Z,7.36
2017-05-11T14:56:06.898Z,5.28
2017-05-11T14:58:37.651Z,3.80
2017-05-11T15:01:05.961Z,5.02
2017-05-11T15:03:34.259Z,2.84
2017-05-11T15:06:03.922Z,5.16
2017-05-11T15:08:32.820Z,2.30
2017-05-11T15:11:01.726Z,2.18
2017-05-11T15:13:30.087Z,2.66
2017-05-11T15:15:58.016Z,3.60
2017-05-11T15:18:26.311Z,2.52
2017-05-11T15:20:55.041Z,4.92
2017-05-11T15:23:23.418Z,2.28
2017-05-11T15:25:52.345Z,4.14
2017-05-11T15:28:20.357Z,3.50
2017-05-11T15:30:48.291Z,2.12
2017-05-11T15:33:16.579Z,4.62
2017-05-11T15:35:44.550Z,7.14
2017-05-11T15:38:12.860Z,7.86
2017-05-11T15:40:40.802Z,6.04
2017-05-11T15:43:08.895Z,1.92
2017-05-11T15:45:36.845Z,1.66
2017-05-11T15:48:05.154Z,2.04
2017-05-11T15:50:33.138Z,1.60
2017-05-11T15:53:02.175Z,2.24
2017-05-11T15:55:30.475Z,1.92
2017-05-11T15:57:58.829Z,2.04
2017-05-11T16:00:27.710Z,1.72
2017-05-11T16:02:56.601Z,2.04
2017-05-11T16:05:24.594Z,4.22
2017-05-11T16:07:53.499Z,4.82
2017-05-11T16:10:22.228Z,4.14
2017-05-11T16:12:50.220Z,2.20
2017-05-11T16:15:18.519Z,2.18
2017-05-11T16:17:46.478Z,1.90
2017-05-11T16:20:14.841Z,3.44
2017-05-11T16:22:42.759Z,5.50
2017-05-11T16:25:10.702Z,2.70
2017-05-11T16:27:39.234Z,2.00
2017-05-11T16:30:07.579Z,4.46
2017-05-11T16:32:35.910Z,1.90
2017-05-11T16:35:04.857Z,2.64
2017-05-11T16:37:33.607Z,3.88
2017-05-11T16:40:01.530Z,5.22
2017-05-11T16:42:29.494Z,1.42
2017-05-11T16:44:58.526Z,1.68
2017-05-11T16:47:26.855Z,2.10
2017-05-11T16:49:54.847Z,5.56
2017-05-11T16:54:56.796Z,3.32
2017-05-11T16:57:25.686Z,4.36
2017-05-11T16:59:54.356Z,4.32
2017-05-11T17:02:23.260Z,8.16
2017-05-11T17:04:52.503Z,6.98
2017-05-11T17:07:21.214Z,8.24
2017-05-11T17:09:49.597Z,4.22
2017-05-11T17:12:17.907Z,6.92
2017-05-11T17:14:45.839Z,35.76
2017-05-11T17:17:14.187Z,14.36
2017-05-11T17:19:42.483Z,9.30
2017-05-11T17:22:11.366Z,5.82
2017-05-11T17:24:39.737Z,15.12
2017-05-11T17:27:08.427Z,3.34
2017-05-11T17:29:36.363Z,9.26
2017-05-11T17:32:05.447Z,4.52
2017-05-11T17:34:33.379Z,3.62
2017-05-11T17:37:01.308Z,6.28
2017-05-11T17:39:30.050Z,3.80
2017-05-11T17:41:58.351Z,5.66
2017-05-11T17:44:26.647Z,4.36
2017-05-11T17:46:54.647Z,3.28
2017-05-11T17:49:23.344Z,3.42
2017-05-11T17:51:51.699Z,3.44
2017-05-11T17:54:19.709Z,3.74
2017-05-11T17:56:48.018Z,7.62
2017-05-11T17:59:16.319Z,5.82
2017-05-11T18:01:45.042Z,7.16
2017-05-11T18:04:13.707Z,4.48
2017-05-11T18:06:42.010Z,3.00
2017-05-11T18:09:10.368Z,4.26
2017-05-11T18:11:38.304Z,4.60
2017-05-11T18:14:06.603Z,4.68
2017-05-11T18:16:34.951Z,3.12
2017-05-11T18:19:03.990Z,3.88
2017-05-11T18:21:31.918Z,3.68
2017-05-11T18:24:00.279Z,5.78
2017-05-11T18:26:28.211Z,8.76
2017-05-11T18:28:57.280Z,4.88
2017-05-11T18:31:26.711Z,4.50
2017-05-11T18:33:54.659Z,3.80
2017-05-11T18:36:22.606Z,4.18
2017-05-11T18:38:50.984Z,5.48
2017-05-11T18:41:19.319Z,4.10
2017-05-11T18:43:47.598Z,4.10
2017-05-11T18:46:16.059Z,4.18
2017-05-11T18:48:44.495Z,6.28
2017-05-11T18:51:12.419Z,4.22
2017-05-11T18:53:41.786Z,4.70
2017-05-11T18:56:09.716Z,6.96
2017-05-11T18:58:37.639Z,3.84
2017-05-11T19:01:06.863Z,4.78
2017-05-11T19:03:35.174Z,4.48
2017-05-11T19:06:04.047Z,5.94
2017-05-11T19:08:32.400Z,5.80
2017-05-11T19:11:01.067Z,4.66
2017-05-11T19:13:29.362Z,5.16
2017-05-11T19:15:58.455Z,3.92
2017-05-11T19:18:26.754Z,6.92
2017-05-11T19:20:55.065Z,5.22
2017-05-11T19:23:24.146Z,6.94
2017-05-11T19:25:53.055Z,5.68
2017-05-11T19:28:21.740Z,4.86
2017-05-11T19:30:49.728Z,4.70
2017-05-11T19:33:18.626Z,6.90
2017-05-11T19:35:47.291Z,5.24
2017-05-11T19:38:16.315Z,8.22
2017-05-11T19:40:45.351Z,4.52
2017-05-11T19:43:14.230Z,4.86
2017-05-11T19:45:44.330Z,5.10
2017-05-11T19:48:13.259Z,10.44
2017-05-11T19:50:42.138Z,4.96
2017-05-11T19:53:10.095Z,5.06
2017-05-11T19:55:38.795Z,5.88
2017-05-11T19:58:07.102Z,4.96
2017-05-11T20:00:36.015Z,7.32
2017-05-11T20:03:04.950Z,5.30
2017-05-11T20:05:32.878Z,4.74
2017-05-11T20:08:01.552Z,5.54
2017-05-11T20:10:30.199Z,4.92
2017-05-11T20:12:59.095Z,4.80
2017-05-11T20:15:27.023Z,4.66
2017-05-11T20:17:55.453Z,5.36
2017-05-11T20:20:24.343Z,5.96
2017-05-11T20:22:53.235Z,5.22
2017-05-11T20:25:21.635Z,5.44
2017-05-11T20:27:49.611Z,5.52
2017-05-11T20:30:17.939Z,5.12
2017-05-11T20:32:45.939Z,6.00
2017-05-11T20:35:14.234Z,5.02
2017-05-11T20:37:42.911Z,5.58
2017-05-11T20:40:11.280Z,4.70
2017-05-11T20:42:39.595Z,5.06
2017-05-11T20:45:08.508Z,4.62
2017-05-11T20:47:36.859Z,6.08
2017-05-11T20:50:05.181Z,5.06
2017-05-11T20:52:33.496Z,5.62
2017-05-11T20:55:02.626Z,6.74
2017-05-11T20:57:30.926Z,6.82
2017-05-11T20:59:59.311Z,5.16
2017-05-11T21:02:28.418Z,7.60
2017-05-11T21:04:56.735Z,5.24
2017-05-11T21:07:25.443Z,5.48
2017-05-11T21:09:54.540Z,8.70
2017-05-11T21:12:23.594Z,4.94
2017-05-11T21:14:52.659Z,4.70
2017-05-11T21:17:21.025Z,3.52
2017-05-11T21:19:49.954Z,3.00
2017-05-11T21:22:18.255Z,5.38
2017-05-11T21:24:46.603Z,3.80
2017-05-11T21:27:15.266Z,2.80
2017-05-11T21:29:43.567Z,2.60
2017-05-11T21:32:11.611Z,3.38
2017-05-11T21:34:39.936Z,2.42
2017-05-11T21:37:08.255Z,2.12
2017-05-11T21:39:36.995Z,4.20
2017-05-11T21:42:05.311Z,2.06
2017-05-11T21:44:33.254Z,1.86
2017-05-11T21:47:01.283Z,2.54
2017-05-11T21:49:29.253Z,2.24
2017-05-11T21:51:57.616Z,3.48
2017-05-11T21:54:26.329Z,2.04
2017-05-11T21:56:54.696Z,1.84
2017-05-11T21:59:23.060Z,2.38
2017-05-11T22:01:52.218Z,3.04
2017-05-11T22:04:20.788Z,1.96
2017-05-11T22:06:49.135Z,3.70
2017-05-11T22:09:17.587Z,2.52
2017-05-11T22:11:46.465Z,1.30
2017-05-11T22:14:16.008Z,2.30
2017-05-11T22:16:44.991Z,2.60
2017-05-11T22:19:13.655Z,1.92
2017-05-11T22:21:41.946Z,1.72
2017-05-11T22:24:10.311Z,1.84
2017-05-11T22:26:38.251Z,1.66
2017-05-11T22:29:06.559Z,5.14
2017-05-11T22:31:35.614Z,1.54
2017-05-11T22:34:03.907Z,2.80
2017-05-11T22:36:32.215Z,2.34
2017-05-11T22:39:01.062Z,3.96
2017-05-11T22:41:29.951Z,3.90
2017-05-11T22:43:58.619Z,2.74
2017-05-11T22:46:26.971Z,3.14
2017-05-11T22:48:55.287Z,4.78
2017-05-11T22:51:24.175Z,4.26
2017-05-11T22:53:52.907Z,1.98
2017-05-11T22:56:21.583Z,2.92
2017-05-11T22:58:50.503Z,2.92
2017-05-11T23:01:18.520Z,2.46
2017-05-11T23:03:46.816Z,1.68
2017-05-11T23:06:16.468Z,2.48
2017-05-11T23:08:44.899Z,1.00
2017-05-11T23:11:12.827Z,3.48
2017-05-11T23:13:41.858Z,2.46
2017-05-11T23:16:10.199Z,3.42
2017-05-11T23:18:39.254Z,5.00
2017-05-11T23:21:07.560Z,2.40
2017-05-11T23:23:36.571Z,6.08
2017-05-11T23:26:05.183Z,2.72
2017-05-11T23:28:34.062Z,2.02
2017-05-11T23:31:02.393Z,1.56
2017-05-11T23:33:31.270Z,2.30
2017-05-11T23:35:59.949Z,3.34
2017-05-11T23:38:28.303Z,2.50
2017-05-11T23:40:56.227Z,5.36
2017-05-11T23:43:24.539Z,4.74
2017-05-11T23:45:52.552Z,1.94
2017-05-11T23:48:20.496Z,2.74
2017-05-11T23:50:48.794Z,1.98
2017-05-11T23:53:17.150Z,5.66
2017-05-11T23:55:45.455Z,3.52
2017-05-11T23:58:13.751Z,2.06
